Pagrindinis puslapis
METAR-TAF:

METAR-TAF

Oro uostai :

Arišas, Egiptas

platuma: 31-05N, ilguma: 033-49E, Aukštis: 31 m

METAR: trūkstamas

Laikas: 13:09 (11:09 UTC)

Prognozė

Ataskaita buvo paskelbta 6 valandos ir 9 minutes, ne 05:00 UTC
Prognozė galioja nuo 27 metu 06 UTC su 28 metu 12 UTC
Vėjas 12 kt iš Pietų/Pietryčių
Matomumas 10 km arba daugiau
Išsisklaidę debesys ne aukštis 2500 ft

TAF: HEAR 270500Z 2706/2812 15012KT 9999 SCT025

Orai ataskaitas ir orų prognozės (METAR, TAF).

turimą stotys yra geltonos ir raudonos taškus žemėlapyje.

Perkelti pele per norėdami pamatyti stoties vardą.

Tada spustelėkite, norėdami matyti oro stebėjimo ir prognozės.

Norėdami pakeisti žemėlapį: spustelėkite ant žalios mygtukų su juodo kryžiaus žemyn,; žalią mygtuką su brūkšneliu, jei norite nutolinti; arba žalių rodyklių gretimoms žemėlapius.


METAR-TAF: